Strona główna
METAR-TAF:

METAR-TAF

Lotnisko :

Port lotniczy Tulon-Hyères

Tulon, Francja

Szerokość geograficzna: 43-06N, Długość geograficzna: 006-09E, wysokość: 3 m

Aktualna obserwacja pogody

Raport powstał 29 minut temu, godzina 07:00 UTC
Wiatr 14 kt od zachód
Temperatura 11°C
Wilgotność 58%
Ciśnienie 1008 hPa
Widzialność 10 km lub więcej
Brak chmur poniżej 1500 m i brak chmur cumulonimbus

METAR: LFTH 260700Z AUTO 28014KT CAVOK 11/03 Q1008 TEMPO 28020G35KT

czas: 08:29 (07:29 UTC)

Prognoza

Raport powstał 5 godziny i 29 minut temu, godzina 02:00 UTC
Prognoza ważna od 26 godzina 03 UTC do 27 godzina 03 UTC
Wiatr 20 kt od zachód
Widzialność 10 km lub więcej
Brak chmur poniżej 1500 m i brak chmur cumulonimbus
Przejściowo
od 26 godzina 03 UTC do 27 godzina 03 UTC
Wiatr 20 kt od zachód w porywach dochodzący do 35 kt

TAF: LFTH 260200Z 2603/2703 28020KT CAVOK TEMPO 2603/2703 28020G35KT

Obserwacja i prognoza pogody dla ponad 4000 lotnisk (raport METAR i TAF).

Dostępne stacje oznaczono żółtymi i czerwonymi punktami na mapie.

Najedź kursorem aby zobaczyć nazwę stacji.

Kliknij aby zobaczyć obserwacje i prognozy pogody.

Aby zmienić mapę: kliknij na zielony przycisk z czarnym krzyżykiem, aby powiększyć; na zielony przycisk z myślnikiem, aby pomniejszyć; na zielone strzałki, aby przejść do map sąsiednich.


METAR-TAF: